sensor_id;sensor_type;location;lat;lon;timestamp;P1;durP1;ratioP1;P2;durP2;ratioP2
85314;SDS011;75718;50.886;11.656;2024-02-26T00:00:25;7.23;;;4.67;;
85314;SDS011;75718;50.886;11.656;2024-02-26T00:02:51;10.77;;;4.50;;
85314;SDS011;75718;50.886;11.656;2024-02-26T00:05:16;6.03;;;3.50;;
85314;SDS011;75718;50.886;11.656;2024-02-26T00:07:41;10.27;;;4.53;;
85314;SDS011;75718;50.886;11.656;2024-02-26T00:10:07;8.70;;;5.07;;
85314;SDS011;75718;50.886;11.656;2024-02-26T00:12:33;7.82;;;4.32;;
85314;SDS011;75718;50.886;11.656;2024-02-26T00:14:58;6.80;;;3.87;;
85314;SDS011;75718;50.886;11.656;2024-02-26T00:17:24;7.77;;;3.70;;
85314;SDS011;75718;50.886;11.656;2024-02-26T00:19:49;4.78;;;3.25;;
85314;SDS011;75718;50.886;11.656;2024-02-26T00:22:15;6.82;;;3.78;;
85314;SDS011;75718;50.886;11.656;2024-02-26T00:24:40;6.70;;;3.67;;
85314;SDS011;75718;50.886;11.656;2024-02-26T00:27:06;10.57;;;3.95;;
85314;SDS011;75718;50.886;11.656;2024-02-26T00:29:31;7.78;;;4.55;;
85314;SDS011;75718;50.886;11.656;2024-02-26T00:31:57;6.70;;;4.25;;
85314;SDS011;75718;50.886;11.656;2024-02-26T00:34:22;8.35;;;4.40;;
85314;SDS011;75718;50.886;11.656;2024-02-26T00:36:48;7.35;;;5.07;;
85314;SDS011;75718;50.886;11.656;2024-02-26T00:39:13;5.17;;;3.77;;
85314;SDS011;75718;50.886;11.656;2024-02-26T00:41:39;7.47;;;4.50;;
85314;SDS011;75718;50.886;11.656;2024-02-26T00:44:05;8.52;;;4.20;;
85314;SDS011;75718;50.886;11.656;2024-02-26T00:46:30;9.27;;;4.40;;
85314;SDS011;75718;50.886;11.656;2024-02-26T00:48:55;8.50;;;5.20;;
85314;SDS011;75718;50.886;11.656;2024-02-26T00:51:21;9.90;;;4.87;;
85314;SDS011;75718;50.886;11.656;2024-02-26T00:53:46;8.53;;;5.20;;
85314;SDS011;75718;50.886;11.656;2024-02-26T00:56:11;8.43;;;4.53;;
85314;SDS011;75718;50.886;11.656;2024-02-26T00:58:36;12.63;;;4.57;;
85314;SDS011;75718;50.886;11.656;2024-02-26T01:01:02;8.97;;;4.90;;
85314;SDS011;75718;50.886;11.656;2024-02-26T01:03:28;6.80;;;4.65;;
85314;SDS011;75718;50.886;11.656;2024-02-26T01:05:53;9.35;;;5.30;;
85314;SDS011;75718;50.886;11.656;2024-02-26T01:08:18;5.77;;;4.20;;
85314;SDS011;75718;50.886;11.656;2024-02-26T01:10:43;5.93;;;3.93;;
85314;SDS011;75718;50.886;11.656;2024-02-26T01:13:09;8.20;;;4.38;;
85314;SDS011;75718;50.886;11.656;2024-02-26T01:15:34;8.10;;;4.47;;
85314;SDS011;75718;50.886;11.656;2024-02-26T01:17:59;7.73;;;4.80;;
85314;SDS011;75718;50.886;11.656;2024-02-26T01:20:24;7.67;;;4.20;;
85314;SDS011;75718;50.886;11.656;2024-02-26T01:22:50;5.70;;;3.70;;
85314;SDS011;75718;50.886;11.656;2024-02-26T01:25:15;7.63;;;4.27;;
85314;SDS011;75718;50.886;11.656;2024-02-26T01:27:40;6.65;;;4.32;;
85314;SDS011;75718;50.886;11.656;2024-02-26T01:30:07;5.90;;;4.90;;
85314;SDS011;75718;50.886;11.656;2024-02-26T01:32:33;8.65;;;4.35;;
85314;SDS011;75718;50.886;11.656;2024-02-26T01:34:58;7.97;;;4.10;;
85314;SDS011;75718;50.886;11.656;2024-02-26T01:37:24;8.63;;;4.60;;
85314;SDS011;75718;50.886;11.656;2024-02-26T01:39:49;6.72;;;4.60;;
85314;SDS011;75718;50.886;11.656;2024-02-26T01:42:14;8.55;;;4.47;;
85314;SDS011;75718;50.886;11.656;2024-02-26T01:44:40;5.40;;;3.70;;
85314;SDS011;75718;50.886;11.656;2024-02-26T01:47:05;5.60;;;3.65;;
85314;SDS011;75718;50.886;11.656;2024-02-26T01:49:33;8.90;;;5.28;;
85314;SDS011;75718;50.886;11.656;2024-02-26T01:52:00;8.40;;;4.85;;
85314;SDS011;75718;50.886;11.656;2024-02-26T01:54:26;12.73;;;5.15;;
85314;SDS011;75718;50.886;11.656;2024-02-26T01:56:52;9.07;;;5.43;;
85314;SDS011;75718;50.886;11.656;2024-02-26T01:59:17;10.57;;;4.85;;
85314;SDS011;75718;50.886;11.656;2024-02-26T02:01:44;6.35;;;4.55;;
85314;SDS011;75718;50.886;11.656;2024-02-26T02:04:12;7.45;;;4.65;;
85314;SDS011;75718;50.886;11.656;2024-02-26T02:06:39;7.97;;;4.70;;
85314;SDS011;75718;50.886;11.656;2024-02-26T02:09:06;11.68;;;5.35;;
85314;SDS011;75718;50.886;11.656;2024-02-26T02:11:33;9.32;;;5.57;;
85314;SDS011;75718;50.886;11.656;2024-02-26T02:13:59;8.18;;;4.60;;
85314;SDS011;75718;50.886;11.656;2024-02-26T02:16:24;8.73;;;4.63;;
85314;SDS011;75718;50.886;11.656;2024-02-26T02:18:50;5.03;;;4.32;;
85314;SDS011;75718;50.886;11.656;2024-02-26T02:21:15;7.03;;;4.77;;
85314;SDS011;75718;50.886;11.656;2024-02-26T02:23:40;11.23;;;5.80;;
85314;SDS011;75718;50.886;11.656;2024-02-26T02:26:11;9.98;;;5.63;;
85314;SDS011;75718;50.886;11.656;2024-02-26T02:28:36;8.40;;;5.93;;
85314;SDS011;75718;50.886;11.656;2024-02-26T02:31:02;7.50;;;4.28;;
85314;SDS011;75718;50.886;11.656;2024-02-26T02:33:28;6.40;;;4.70;;
85314;SDS011;75718;50.886;11.656;2024-02-26T02:35:54;9.15;;;5.32;;
85314;SDS011;75718;50.886;11.656;2024-02-26T02:38:20;9.13;;;5.82;;
85314;SDS011;75718;50.886;11.656;2024-02-26T02:40:45;9.00;;;4.65;;
85314;SDS011;75718;50.886;11.656;2024-02-26T02:43:10;7.57;;;4.53;;
85314;SDS011;75718;50.886;11.656;2024-02-26T02:45:36;10.93;;;5.93;;
85314;SDS011;75718;50.886;11.656;2024-02-26T02:48:01;8.17;;;4.83;;
85314;SDS011;75718;50.886;11.656;2024-02-26T02:50:27;11.88;;;5.70;;
85314;SDS011;75718;50.886;11.656;2024-02-26T02:52:54;12.43;;;6.80;;
85314;SDS011;75718;50.886;11.656;2024-02-26T02:55:19;9.00;;;5.13;;
85314;SDS011;75718;50.886;11.656;2024-02-26T02:57:44;8.40;;;6.03;;
85314;SDS011;75718;50.886;11.656;2024-02-26T03:00:10;10.30;;;6.33;;
85314;SDS011;75718;50.886;11.656;2024-02-26T03:02:36;12.23;;;5.93;;
85314;SDS011;75718;50.886;11.656;2024-02-26T03:05:04;10.00;;;6.28;;
85314;SDS011;75718;50.886;11.656;2024-02-26T03:07:30;11.00;;;5.80;;
85314;SDS011;75718;50.886;11.656;2024-02-26T03:09:56;10.18;;;6.47;;
85314;SDS011;75718;50.886;11.656;2024-02-26T03:12:21;10.07;;;5.63;;
85314;SDS011;75718;50.886;11.656;2024-02-26T03:14:46;12.13;;;5.93;;
85314;SDS011;75718;50.886;11.656;2024-02-26T03:17:11;10.60;;;6.43;;
85314;SDS011;75718;50.886;11.656;2024-02-26T03:19:37;14.37;;;6.40;;
85314;SDS011;75718;50.886;11.656;2024-02-26T03:22:02;9.17;;;5.87;;
85314;SDS011;75718;50.886;11.656;2024-02-26T03:24:27;11.33;;;6.00;;
85314;SDS011;75718;50.886;11.656;2024-02-26T03:26:52;12.87;;;6.93;;
85314;SDS011;75718;50.886;11.656;2024-02-26T03:29:18;11.57;;;5.57;;
85314;SDS011;75718;50.886;11.656;2024-02-26T03:31:43;9.07;;;6.25;;
85314;SDS011;75718;50.886;11.656;2024-02-26T03:34:08;11.17;;;6.67;;
85314;SDS011;75718;50.886;11.656;2024-02-26T03:36:34;10.40;;;5.73;;
85314;SDS011;75718;50.886;11.656;2024-02-26T03:38:59;12.30;;;6.15;;
85314;SDS011;75718;50.886;11.656;2024-02-26T03:41:24;13.00;;;6.45;;
85314;SDS011;75718;50.886;11.656;2024-02-26T03:43:49;13.53;;;6.80;;
85314;SDS011;75718;50.886;11.656;2024-02-26T03:46:15;13.55;;;6.38;;
85314;SDS011;75718;50.886;11.656;2024-02-26T03:48:41;9.68;;;6.57;;
85314;SDS011;75718;50.886;11.656;2024-02-26T03:51:06;15.18;;;6.80;;
85314;SDS011;75718;50.886;11.656;2024-02-26T03:53:34;11.10;;;6.32;;
85314;SDS011;75718;50.886;11.656;2024-02-26T03:56:03;10.73;;;6.73;;
85314;SDS011;75718;50.886;11.656;2024-02-26T03:58:29;11.20;;;6.93;;
85314;SDS011;75718;50.886;11.656;2024-02-26T04:00:54;8.90;;;5.10;;
85314;SDS011;75718;50.886;11.656;2024-02-26T04:03:19;12.87;;;7.03;;
85314;SDS011;75718;50.886;11.656;2024-02-26T04:05:44;11.60;;;6.00;;
85314;SDS011;75718;50.886;11.656;2024-02-26T04:08:10;12.93;;;6.80;;
85314;SDS011;75718;50.886;11.656;2024-02-26T04:10:35;13.10;;;7.80;;
85314;SDS011;75718;50.886;11.656;2024-02-26T04:13:03;16.30;;;7.15;;
85314;SDS011;75718;50.886;11.656;2024-02-26T04:15:28;16.48;;;7.47;;
85314;SDS011;75718;50.886;11.656;2024-02-26T04:17:54;14.93;;;8.40;;
85314;SDS011;75718;50.886;11.656;2024-02-26T04:20:19;13.15;;;7.90;;
85314;SDS011;75718;50.886;11.656;2024-02-26T04:22:44;18.63;;;8.23;;
85314;SDS011;75718;50.886;11.656;2024-02-26T04:25:10;13.15;;;6.35;;
85314;SDS011;75718;50.886;11.656;2024-02-26T04:27:35;15.27;;;8.00;;
85314;SDS011;75718;50.886;11.656;2024-02-26T04:30:00;13.87;;;7.93;;
85314;SDS011;75718;50.886;11.656;2024-02-26T04:32:26;16.00;;;8.07;;
85314;SDS011;75718;50.886;11.656;2024-02-26T04:34:51;11.80;;;6.53;;
85314;SDS011;75718;50.886;11.656;2024-02-26T04:37:16;13.13;;;7.27;;
85314;SDS011;75718;50.886;11.656;2024-02-26T04:39:42;15.10;;;7.07;;
85314;SDS011;75718;50.886;11.656;2024-02-26T04:42:07;12.68;;;7.85;;
85314;SDS011;75718;50.886;11.656;2024-02-26T04:44:32;12.67;;;7.10;;
85314;SDS011;75718;50.886;11.656;2024-02-26T04:46:58;15.68;;;8.20;;
85314;SDS011;75718;50.886;11.656;2024-02-26T04:49:24;16.35;;;7.95;;
85314;SDS011;75718;50.886;11.656;2024-02-26T04:51:49;15.57;;;7.30;;
85314;SDS011;75718;50.886;11.656;2024-02-26T04:54:14;11.63;;;7.68;;
85314;SDS011;75718;50.886;11.656;2024-02-26T04:56:40;14.13;;;7.93;;
85314;SDS011;75718;50.886;11.656;2024-02-26T04:59:05;13.23;;;8.23;;
85314;SDS011;75718;50.886;11.656;2024-02-26T05:01:30;12.83;;;8.47;;
85314;SDS011;75718;50.886;11.656;2024-02-26T05:03:55;12.90;;;7.47;;
85314;SDS011;75718;50.886;11.656;2024-02-26T05:06:21;12.80;;;6.90;;
85314;SDS011;75718;50.886;11.656;2024-02-26T05:08:46;13.43;;;7.55;;
85314;SDS011;75718;50.886;11.656;2024-02-26T05:11:11;18.43;;;9.67;;
85314;SDS011;75718;50.886;11.656;2024-02-26T05:13:37;18.43;;;7.73;;
85314;SDS011;75718;50.886;11.656;2024-02-26T05:16:02;17.13;;;8.45;;
85314;SDS011;75718;50.886;11.656;2024-02-26T05:18:27;16.48;;;9.95;;
85314;SDS011;75718;50.886;11.656;2024-02-26T05:20:53;17.90;;;10.23;;
85314;SDS011;75718;50.886;11.656;2024-02-26T05:23:18;11.90;;;6.50;;
85314;SDS011;75718;50.886;11.656;2024-02-26T05:25:43;10.47;;;6.10;;
85314;SDS011;75718;50.886;11.656;2024-02-26T05:28:11;14.48;;;7.38;;
85314;SDS011;75718;50.886;11.656;2024-02-26T05:30:37;12.30;;;6.93;;
85314;SDS011;75718;50.886;11.656;2024-02-26T05:33:04;13.23;;;7.32;;
85314;SDS011;75718;50.886;11.656;2024-02-26T05:35:30;15.27;;;8.30;;
85314;SDS011;75718;50.886;11.656;2024-02-26T05:37:55;15.73;;;7.77;;
85314;SDS011;75718;50.886;11.656;2024-02-26T05:40:20;10.97;;;6.50;;
85314;SDS011;75718;50.886;11.656;2024-02-26T05:42:45;16.93;;;7.03;;
85314;SDS011;75718;50.886;11.656;2024-02-26T05:45:11;13.63;;;6.67;;
85314;SDS011;75718;50.886;11.656;2024-02-26T05:47:36;13.68;;;7.25;;
85314;SDS011;75718;50.886;11.656;2024-02-26T05:50:07;16.17;;;7.45;;
85314;SDS011;75718;50.886;11.656;2024-02-26T05:52:36;17.23;;;8.27;;
85314;SDS011;75718;50.886;11.656;2024-02-26T05:55:02;19.02;;;8.95;;
85314;SDS011;75718;50.886;11.656;2024-02-26T05:57:28;16.58;;;9.30;;
85314;SDS011;75718;50.886;11.656;2024-02-26T05:59:53;12.90;;;7.47;;
85314;SDS011;75718;50.886;11.656;2024-02-26T06:02:18;13.83;;;7.37;;
85314;SDS011;75718;50.886;11.656;2024-02-26T06:04:43;18.37;;;8.87;;
85314;SDS011;75718;50.886;11.656;2024-02-26T06:07:09;13.48;;;8.02;;
85314;SDS011;75718;50.886;11.656;2024-02-26T06:09:34;15.43;;;8.23;;
85314;SDS011;75718;50.886;11.656;2024-02-26T06:12:00;16.35;;;8.32;;
85314;SDS011;75718;50.886;11.656;2024-02-26T06:14:25;12.77;;;8.47;;
85314;SDS011;75718;50.886;11.656;2024-02-26T06:16:50;16.57;;;8.23;;
85314;SDS011;75718;50.886;11.656;2024-02-26T06:19:15;13.60;;;8.10;;
85314;SDS011;75718;50.886;11.656;2024-02-26T06:21:41;15.03;;;8.20;;
85314;SDS011;75718;50.886;11.656;2024-02-26T06:24:06;15.20;;;9.03;;
85314;SDS011;75718;50.886;11.656;2024-02-26T06:26:31;17.03;;;9.43;;
85314;SDS011;75718;50.886;11.656;2024-02-26T06:28:58;19.00;;;8.73;;
85314;SDS011;75718;50.886;11.656;2024-02-26T06:31:23;21.60;;;10.80;;
85314;SDS011;75718;50.886;11.656;2024-02-26T06:33:49;17.20;;;9.95;;
85314;SDS011;75718;50.886;11.656;2024-02-26T06:36:17;18.35;;;8.82;;
85314;SDS011;75718;50.886;11.656;2024-02-26T06:38:42;19.85;;;9.48;;
85314;SDS011;75718;50.886;11.656;2024-02-26T06:41:07;21.33;;;9.33;;
85314;SDS011;75718;50.886;11.656;2024-02-26T06:43:33;16.55;;;8.77;;
85314;SDS011;75718;50.886;11.656;2024-02-26T06:45:59;16.77;;;8.57;;
85314;SDS011;75718;50.886;11.656;2024-02-26T06:48:24;17.33;;;8.70;;
85314;SDS011;75718;50.886;11.656;2024-02-26T06:50:49;18.15;;;9.48;;
85314;SDS011;75718;50.886;11.656;2024-02-26T06:53:15;14.38;;;7.50;;
85314;SDS011;75718;50.886;11.656;2024-02-26T06:55:41;22.88;;;9.52;;
85314;SDS011;75718;50.886;11.656;2024-02-26T06:58:06;14.18;;;7.53;;
85314;SDS011;75718;50.886;11.656;2024-02-26T07:00:32;12.57;;;7.13;;
85314;SDS011;75718;50.886;11.656;2024-02-26T07:02:57;15.90;;;7.53;;
85314;SDS011;75718;50.886;11.656;2024-02-26T07:05:23;43.53;;;19.42;;
85314;SDS011;75718;50.886;11.656;2024-02-26T07:07:48;19.97;;;8.63;;
85314;SDS011;75718;50.886;11.656;2024-02-26T07:10:13;15.90;;;8.17;;
85314;SDS011;75718;50.886;11.656;2024-02-26T07:12:39;9.90;;;5.80;;
85314;SDS011;75718;50.886;11.656;2024-02-26T07:15:04;8.50;;;4.97;;
85314;SDS011;75718;50.886;11.656;2024-02-26T07:17:31;10.60;;;4.75;;
85314;SDS011;75718;50.886;11.656;2024-02-26T07:19:59;9.98;;;5.60;;
85314;SDS011;75718;50.886;11.656;2024-02-26T07:22:24;14.60;;;6.80;;
85314;SDS011;75718;50.886;11.656;2024-02-26T07:24:49;12.20;;;6.63;;
85314;SDS011;75718;50.886;11.656;2024-02-26T07:27:14;10.52;;;6.20;;
85314;SDS011;75718;50.886;11.656;2024-02-26T07:29:42;9.63;;;5.57;;
85314;SDS011;75718;50.886;11.656;2024-02-26T07:32:08;10.48;;;6.00;;
85314;SDS011;75718;50.886;11.656;2024-02-26T07:34:33;11.50;;;6.57;;
85314;SDS011;75718;50.886;11.656;2024-02-26T07:36:58;11.90;;;5.77;;
85314;SDS011;75718;50.886;11.656;2024-02-26T07:39:23;8.60;;;5.13;;
85314;SDS011;75718;50.886;11.656;2024-02-26T07:41:49;10.27;;;5.37;;
85314;SDS011;75718;50.886;11.656;2024-02-26T07:44:16;11.25;;;5.70;;
85314;SDS011;75718;50.886;11.656;2024-02-26T07:46:42;9.60;;;5.30;;
85314;SDS011;75718;50.886;11.656;2024-02-26T07:49:07;12.70;;;4.95;;
85314;SDS011;75718;50.886;11.656;2024-02-26T07:51:33;11.02;;;4.57;;
85314;SDS011;75718;50.886;11.656;2024-02-26T07:53:58;7.22;;;4.60;;
85314;SDS011;75718;50.886;11.656;2024-02-26T07:56:23;9.70;;;4.87;;
85314;SDS011;75718;50.886;11.656;2024-02-26T07:58:49;8.07;;;5.10;;
85314;SDS011;75718;50.886;11.656;2024-02-26T08:01:14;8.13;;;5.17;;
85314;SDS011;75718;50.886;11.656;2024-02-26T08:03:40;11.25;;;5.13;;
85314;SDS011;75718;50.886;11.656;2024-02-26T08:06:05;8.50;;;4.80;;
85314;SDS011;75718;50.886;11.656;2024-02-26T08:08:30;10.40;;;5.13;;
85314;SDS011;75718;50.886;11.656;2024-02-26T08:10:55;8.47;;;5.83;;
85314;SDS011;75718;50.886;11.656;2024-02-26T08:13:21;10.30;;;5.57;;
85314;SDS011;75718;50.886;11.656;2024-02-26T08:15:46;11.70;;;6.13;;
85314;SDS011;75718;50.886;11.656;2024-02-26T08:18:11;12.30;;;6.13;;
85314;SDS011;75718;50.886;11.656;2024-02-26T08:20:37;9.98;;;5.97;;
85314;SDS011;75718;50.886;11.656;2024-02-26T08:23:02;12.32;;;6.60;;
85314;SDS011;75718;50.886;11.656;2024-02-26T08:25:27;9.48;;;5.47;;
85314;SDS011;75718;50.886;11.656;2024-02-26T08:27:53;11.75;;;5.95;;
85314;SDS011;75718;50.886;11.656;2024-02-26T08:30:18;8.83;;;5.93;;
85314;SDS011;75718;50.886;11.656;2024-02-26T08:32:44;11.65;;;6.57;;
85314;SDS011;75718;50.886;11.656;2024-02-26T08:35:10;15.25;;;7.35;;
85314;SDS011;75718;50.886;11.656;2024-02-26T08:37:35;15.23;;;7.07;;
85314;SDS011;75718;50.886;11.656;2024-02-26T08:40:00;12.07;;;6.67;;
85314;SDS011;75718;50.886;11.656;2024-02-26T08:42:25;11.73;;;6.30;;
85314;SDS011;75718;50.886;11.656;2024-02-26T08:44:51;11.53;;;6.43;;
85314;SDS011;75718;50.886;11.656;2024-02-26T08:47:16;12.70;;;7.13;;
85314;SDS011;75718;50.886;11.656;2024-02-26T08:49:45;19.63;;;9.38;;
85314;SDS011;75718;50.886;11.656;2024-02-26T08:52:10;19.65;;;9.60;;
85314;SDS011;75718;50.886;11.656;2024-02-26T08:54:36;19.67;;;9.20;;
85314;SDS011;75718;50.886;11.656;2024-02-26T08:57:01;18.48;;;8.75;;
85314;SDS011;75718;50.886;11.656;2024-02-26T08:59:27;15.13;;;8.75;;
85314;SDS011;75718;50.886;11.656;2024-02-26T09:01:53;16.38;;;8.13;;
85314;SDS011;75718;50.886;11.656;2024-02-26T09:04:18;15.50;;;7.07;;
85314;SDS011;75718;50.886;11.656;2024-02-26T09:06:43;16.67;;;8.03;;
85314;SDS011;75718;50.886;11.656;2024-02-26T09:09:08;14.17;;;8.33;;
85314;SDS011;75718;50.886;11.656;2024-02-26T09:11:34;16.20;;;7.97;;
85314;SDS011;75718;50.886;11.656;2024-02-26T09:13:59;12.85;;;7.07;;
85314;SDS011;75718;50.886;11.656;2024-02-26T09:16:24;14.10;;;7.77;;
85314;SDS011;75718;50.886;11.656;2024-02-26T09:18:49;14.47;;;8.43;;
85314;SDS011;75718;50.886;11.656;2024-02-26T09:21:15;16.03;;;8.67;;
85314;SDS011;75718;50.886;11.656;2024-02-26T09:23:41;15.13;;;9.18;;
85314;SDS011;75718;50.886;11.656;2024-02-26T09:26:06;17.43;;;9.23;;
85314;SDS011;75718;50.886;11.656;2024-02-26T09:28:31;16.40;;;8.52;;
85314;SDS011;75718;50.886;11.656;2024-02-26T09:31:02;15.82;;;8.50;;
85314;SDS011;75718;50.886;11.656;2024-02-26T09:33:28;14.82;;;7.63;;
85314;SDS011;75718;50.886;11.656;2024-02-26T09:35:54;13.27;;;7.50;;
85314;SDS011;75718;50.886;11.656;2024-02-26T09:38:19;18.70;;;9.10;;
85314;SDS011;75718;50.886;11.656;2024-02-26T09:40:44;16.43;;;8.27;;
85314;SDS011;75718;50.886;11.656;2024-02-26T09:43:10;18.23;;;9.53;;
85314;SDS011;75718;50.886;11.656;2024-02-26T09:45:40;13.55;;;7.38;;
85314;SDS011;75718;50.886;11.656;2024-02-26T09:48:07;13.35;;;7.05;;
85314;SDS011;75718;50.886;11.656;2024-02-26T09:50:35;12.77;;;7.90;;
85314;SDS011;75718;50.886;11.656;2024-02-26T09:53:00;15.68;;;8.63;;
85314;SDS011;75718;50.886;11.656;2024-02-26T09:55:27;11.68;;;8.10;;
85314;SDS011;75718;50.886;11.656;2024-02-26T09:57:53;14.85;;;7.10;;
85314;SDS011;75718;50.886;11.656;2024-02-26T10:00:19;15.75;;;7.15;;
85314;SDS011;75718;50.886;11.656;2024-02-26T10:02:46;12.77;;;7.40;;
85314;SDS011;75718;50.886;11.656;2024-02-26T10:05:14;13.55;;;7.30;;
85314;SDS011;75718;50.886;11.656;2024-02-26T10:07:43;11.05;;;7.20;;
85314;SDS011;75718;50.886;11.656;2024-02-26T10:10:09;14.48;;;7.45;;
85314;SDS011;75718;50.886;11.656;2024-02-26T10:12:34;13.88;;;7.50;;
85314;SDS011;75718;50.886;11.656;2024-02-26T10:15:00;13.00;;;8.57;;
85314;SDS011;75718;50.886;11.656;2024-02-26T10:17:26;16.92;;;8.48;;
85314;SDS011;75718;50.886;11.656;2024-02-26T10:19:51;15.20;;;8.60;;
85314;SDS011;75718;50.886;11.656;2024-02-26T10:22:21;17.15;;;8.25;;
85314;SDS011;75718;50.886;11.656;2024-02-26T10:24:47;14.50;;;7.88;;
85314;SDS011;75718;50.886;11.656;2024-02-26T10:27:13;14.05;;;8.57;;
85314;SDS011;75718;50.886;11.656;2024-02-26T10:29:38;14.00;;;8.30;;
85314;SDS011;75718;50.886;11.656;2024-02-26T10:32:03;13.82;;;7.53;;
85314;SDS011;75718;50.886;11.656;2024-02-26T10:34:29;14.70;;;8.35;;
85314;SDS011;75718;50.886;11.656;2024-02-26T10:36:55;14.43;;;8.75;;
85314;SDS011;75718;50.886;11.656;2024-02-26T10:39:20;16.70;;;9.10;;
85314;SDS011;75718;50.886;11.656;2024-02-26T10:41:45;16.77;;;9.13;;
85314;SDS011;75718;50.886;11.656;2024-02-26T10:44:11;15.00;;;7.93;;
85314;SDS011;75718;50.886;11.656;2024-02-26T10:46:37;16.85;;;9.60;;
85314;SDS011;75718;50.886;11.656;2024-02-26T10:49:04;17.40;;;8.88;;
85314;SDS011;75718;50.886;11.656;2024-02-26T10:51:31;18.02;;;9.65;;
85314;SDS011;75718;50.886;11.656;2024-02-26T10:54:01;19.55;;;9.05;;
85314;SDS011;75718;50.886;11.656;2024-02-26T10:56:33;15.25;;;9.07;;
85314;SDS011;75718;50.886;11.656;2024-02-26T10:58:59;16.13;;;9.23;;
85314;SDS011;75718;50.886;11.656;2024-02-26T11:01:25;15.43;;;9.38;;
85314;SDS011;75718;50.886;11.656;2024-02-26T11:03:54;17.42;;;10.15;;
85314;SDS011;75718;50.886;11.656;2024-02-26T11:06:20;17.58;;;10.65;;
85314;SDS011;75718;50.886;11.656;2024-02-26T11:08:50;18.27;;;11.43;;
85314;SDS011;75718;50.886;11.656;2024-02-26T11:11:16;20.08;;;10.45;;
85314;SDS011;75718;50.886;11.656;2024-02-26T11:13:44;19.85;;;10.88;;
85314;SDS011;75718;50.886;11.656;2024-02-26T11:16:14;19.20;;;11.82;;
85314;SDS011;75718;50.886;11.656;2024-02-26T11:18:42;20.17;;;10.38;;
85314;SDS011;75718;50.886;11.656;2024-02-26T11:21:12;18.00;;;11.02;;
85314;SDS011;75718;50.886;11.656;2024-02-26T11:23:40;19.45;;;10.48;;
85314;SDS011;75718;50.886;11.656;2024-02-26T11:26:05;18.45;;;10.88;;
85314;SDS011;75718;50.886;11.656;2024-02-26T11:28:32;18.45;;;10.75;;
85314;SDS011;75718;50.886;11.656;2024-02-26T11:30:59;21.55;;;12.35;;
85314;SDS011;75718;50.886;11.656;2024-02-26T11:33:26;18.88;;;12.60;;
85314;SDS011;75718;50.886;11.656;2024-02-26T11:35:53;19.00;;;11.23;;
85314;SDS011;75718;50.886;11.656;2024-02-26T11:38:20;22.58;;;11.65;;
85314;SDS011;75718;50.886;11.656;2024-02-26T11:40:46;17.90;;;10.40;;
85314;SDS011;75718;50.886;11.656;2024-02-26T11:43:12;20.10;;;11.80;;
85314;SDS011;75718;50.886;11.656;2024-02-26T11:50:48;16.58;;;10.68;;
85314;SDS011;75718;50.886;11.656;2024-02-26T11:53:30;19.30;;;11.55;;
85314;SDS011;75718;50.886;11.656;2024-02-26T11:58:45;18.30;;;10.95;;
85314;SDS011;75718;50.886;11.656;2024-02-26T12:04:32;20.10;;;11.20;;
85314;SDS011;75718;50.886;11.656;2024-02-26T12:07:00;19.20;;;11.68;;
85314;SDS011;75718;50.886;11.656;2024-02-26T12:09:41;16.42;;;10.13;;
85314;SDS011;75718;50.886;11.656;2024-02-26T12:12:08;19.10;;;11.70;;
85314;SDS011;75718;50.886;11.656;2024-02-26T12:14:38;21.90;;;12.55;;
85314;SDS011;75718;50.886;11.656;2024-02-26T12:17:05;14.55;;;10.27;;
85314;SDS011;75718;50.886;11.656;2024-02-26T12:19:33;18.02;;;11.73;;
85314;SDS011;75718;50.886;11.656;2024-02-26T12:22:00;17.50;;;11.23;;
85314;SDS011;75718;50.886;11.656;2024-02-26T12:24:25;19.13;;;11.25;;
85314;SDS011;75718;50.886;11.656;2024-02-26T12:26:51;17.17;;;10.47;;
85314;SDS011;75718;50.886;11.656;2024-02-26T12:29:16;18.50;;;11.70;;
85314;SDS011;75718;50.886;11.656;2024-02-26T12:31:41;21.33;;;11.57;;
85314;SDS011;75718;50.886;11.656;2024-02-26T12:34:07;19.98;;;11.80;;
85314;SDS011;75718;50.886;11.656;2024-02-26T12:36:34;19.42;;;10.68;;
85314;SDS011;75718;50.886;11.656;2024-02-26T12:39:00;15.82;;;10.98;;
85314;SDS011;75718;50.886;11.656;2024-02-26T12:41:27;17.88;;;11.65;;
85314;SDS011;75718;50.886;11.656;2024-02-26T12:43:54;20.10;;;12.43;;
85314;SDS011;75718;50.886;11.656;2024-02-26T12:46:19;21.77;;;12.17;;
85314;SDS011;75718;50.886;11.656;2024-02-26T12:48:46;19.08;;;11.77;;
85314;SDS011;75718;50.886;11.656;2024-02-26T12:51:12;17.30;;;10.73;;
85314;SDS011;75718;50.886;11.656;2024-02-26T12:53:37;17.02;;;10.43;;
85314;SDS011;75718;50.886;11.656;2024-02-26T12:56:03;13.30;;;9.63;;
85314;SDS011;75718;50.886;11.656;2024-02-26T12:58:30;17.85;;;10.07;;
85314;SDS011;75718;50.886;11.656;2024-02-26T13:00:57;30.85;;;16.42;;
85314;SDS011;75718;50.886;11.656;2024-02-26T13:03:22;16.08;;;10.05;;
85314;SDS011;75718;50.886;11.656;2024-02-26T13:05:48;13.07;;;9.05;;
85314;SDS011;75718;50.886;11.656;2024-02-26T13:08:18;17.35;;;10.77;;
85314;SDS011;75718;50.886;11.656;2024-02-26T13:10:46;17.45;;;9.63;;
85314;SDS011;75718;50.886;11.656;2024-02-26T13:13:16;13.43;;;8.68;;
85314;SDS011;75718;50.886;11.656;2024-02-26T13:15:42;13.30;;;9.98;;
85314;SDS011;75718;50.886;11.656;2024-02-26T13:18:12;18.02;;;11.05;;
85314;SDS011;75718;50.886;11.656;2024-02-26T13:20:38;16.48;;;9.77;;
85314;SDS011;75718;50.886;11.656;2024-02-26T13:23:08;15.88;;;10.07;;
85314;SDS011;75718;50.886;11.656;2024-02-26T13:25:38;16.80;;;9.77;;
85314;SDS011;75718;50.886;11.656;2024-02-26T13:28:08;18.95;;;10.55;;
85314;SDS011;75718;50.886;11.656;2024-02-26T13:30:56;13.55;;;9.27;;
85314;SDS011;75718;50.886;11.656;2024-02-26T13:33:22;17.48;;;11.10;;
85314;SDS011;75718;50.886;11.656;2024-02-26T13:35:49;16.17;;;10.40;;
85314;SDS011;75718;50.886;11.656;2024-02-26T13:38:15;18.00;;;9.85;;
85314;SDS011;75718;50.886;11.656;2024-02-26T13:40:41;16.07;;;10.63;;
85314;SDS011;75718;50.886;11.656;2024-02-26T13:43:06;18.05;;;10.65;;
85314;SDS011;75718;50.886;11.656;2024-02-26T13:45:35;15.80;;;10.18;;
85314;SDS011;75718;50.886;11.656;2024-02-26T13:48:03;15.27;;;10.18;;
85314;SDS011;75718;50.886;11.656;2024-02-26T13:50:36;18.15;;;11.88;;
85314;SDS011;75718;50.886;11.656;2024-02-26T13:53:02;17.75;;;10.68;;
85314;SDS011;75718;50.886;11.656;2024-02-26T13:55:28;17.33;;;10.75;;
85314;SDS011;75718;50.886;11.656;2024-02-26T13:57:55;18.08;;;11.43;;
85314;SDS011;75718;50.886;11.656;2024-02-26T14:00:21;18.30;;;11.65;;
85314;SDS011;75718;50.886;11.656;2024-02-26T14:02:47;18.23;;;11.68;;
85314;SDS011;75718;50.886;11.656;2024-02-26T14:05:12;20.80;;;11.93;;
85314;SDS011;75718;50.886;11.656;2024-02-26T14:07:38;17.92;;;11.75;;
85314;SDS011;75718;50.886;11.656;2024-02-26T14:10:04;16.88;;;11.05;;
85314;SDS011;75718;50.886;11.656;2024-02-26T14:12:30;14.98;;;11.15;;
85314;SDS011;75718;50.886;11.656;2024-02-26T14:14:55;16.50;;;10.40;;
85314;SDS011;75718;50.886;11.656;2024-02-26T14:17:23;18.85;;;11.73;;
85314;SDS011;75718;50.886;11.656;2024-02-26T14:19:49;16.50;;;11.52;;
85314;SDS011;75718;50.886;11.656;2024-02-26T14:22:14;15.27;;;10.70;;
85314;SDS011;75718;50.886;11.656;2024-02-26T14:24:42;16.27;;;10.80;;